createdAt,value
2022-10-12T00:06:39.709Z,3.70
2022-10-12T00:16:44.446Z,3.60
2022-10-12T00:26:47.776Z,3.40
2022-10-12T00:36:52.513Z,3.20
2022-10-12T00:46:58.618Z,3.00
2022-10-12T00:57:06.056Z,2.80
2022-10-12T01:07:09.375Z,2.70
2022-10-12T01:17:34.214Z,2.70
2022-10-12T01:27:47.166Z,2.70
2022-10-12T01:37:59.931Z,2.70
2022-10-12T01:48:03.850Z,2.70
2022-10-12T01:58:46.255Z,2.80
2022-10-12T02:08:57.565Z,2.80
2022-10-12T02:19:04.118Z,2.70
2022-10-12T02:29:14.590Z,2.50
2022-10-12T02:39:25.091Z,2.40
2022-10-12T02:49:31.102Z,2.40
2022-10-12T02:59:35.993Z,2.30
2022-10-12T03:09:39.327Z,2.20
2022-10-12T03:19:43.982Z,2.10
2022-10-12T03:29:47.203Z,2.10
2022-10-12T03:39:51.846Z,2.10
2022-10-12T03:49:55.054Z,2.10
2022-10-12T03:59:59.630Z,2.10
2022-10-12T04:10:02.984Z,2.10
2022-10-12T04:20:08.772Z,2.00
2022-10-12T04:30:13.865Z,1.90
2022-10-12T04:40:18.629Z,1.90
2022-10-12T04:50:24.190Z,1.90
2022-10-12T05:00:31.055Z,1.90
2022-10-12T05:10:34.759Z,1.90
2022-10-12T05:20:39.481Z,2.00
2022-10-12T05:30:42.770Z,2.10
2022-10-12T05:40:47.632Z,2.20
2022-10-12T05:50:54.314Z,2.40
2022-10-12T06:01:07.533Z,2.80
2022-10-12T06:11:10.825Z,3.20
2022-10-12T06:21:33.507Z,3.80
2022-10-12T06:31:38.451Z,4.10
2022-10-12T06:41:43.054Z,4.60
2022-10-12T06:51:46.300Z,5.40
2022-10-12T07:01:51.134Z,5.90
2022-10-12T07:11:54.514Z,7.00
2022-10-12T07:21:59.169Z,8.00
2022-10-12T07:32:02.821Z,8.50
2022-10-12T07:42:07.553Z,9.50
2022-10-12T07:52:10.852Z,10.90
2022-10-12T08:02:15.542Z,10.20
2022-10-12T08:12:18.765Z,9.70
2022-10-12T08:22:24.874Z,10.60
2022-10-12T08:32:28.183Z,12.00
2022-10-12T08:42:46.657Z,14.40
2022-10-12T08:52:55.722Z,17.30
2022-10-12T09:03:13.999Z,22.30
2022-10-12T09:13:38.703Z,27.10
2022-10-12T09:23:44.278Z,27.00
2022-10-12T09:33:54.873Z,30.60
2022-10-12T09:44:04.018Z,33.20
2022-10-12T09:54:08.141Z,38.20
2022-10-12T10:04:17.693Z,40.20
2022-10-12T10:14:21.325Z,41.50
2022-10-12T10:24:32.582Z,43.60
2022-10-12T10:34:36.120Z,42.80
2022-10-12T10:54:50.716Z,44.00
2022-10-12T11:05:03.338Z,45.10
2022-10-12T11:15:14.643Z,45.40
2022-10-12T11:25:26.938Z,47.00
2022-10-12T11:35:35.540Z,46.80
2022-10-12T11:45:47.183Z,47.60
2022-10-12T11:56:03.928Z,47.50
2022-10-12T12:06:53.088Z,48.00
2022-10-12T12:17:26.945Z,47.40
2022-10-12T12:27:42.146Z,46.80
2022-10-12T12:37:45.971Z,45.60
2022-10-12T12:47:50.659Z,46.20
2022-10-12T12:58:11.623Z,45.50
2022-10-12T13:08:30.842Z,45.60
2022-10-12T13:18:53.172Z,43.30
2022-10-12T13:28:59.117Z,44.30
2022-10-12T13:39:16.559Z,43.00
2022-10-12T13:49:24.703Z,41.40
2022-10-12T13:59:32.070Z,40.30
2022-10-12T14:09:43.339Z,38.80
2022-10-12T14:19:49.819Z,34.80
2022-10-12T14:29:59.149Z,28.80
2022-10-12T14:40:30.967Z,21.50
2022-10-12T14:50:35.605Z,18.20
2022-10-12T15:00:39.560Z,16.20
2022-10-12T15:10:44.603Z,14.90
2022-10-12T15:20:49.795Z,13.80
2022-10-12T15:41:20.104Z,12.00
2022-10-12T15:51:26.044Z,11.10
2022-10-12T16:01:29.696Z,10.30
2022-10-12T16:11:34.527Z,9.50
2022-10-12T16:21:37.910Z,8.70
2022-10-12T16:41:51.497Z,7.40
2022-10-12T16:51:56.207Z,6.90
2022-10-12T17:01:59.512Z,6.50
2022-10-12T17:12:04.455Z,6.00
2022-10-12T17:22:10.173Z,5.60
2022-10-12T17:32:15.415Z,5.20
2022-10-12T17:42:20.557Z,4.90
2022-10-12T17:52:25.375Z,4.70
2022-10-12T18:02:29.722Z,4.50
2022-10-12T18:12:34.447Z,4.20
2022-10-12T18:22:37.695Z,4.00
2022-10-12T18:32:42.587Z,3.80
2022-10-12T18:42:46.108Z,3.70
2022-10-12T18:52:50.797Z,3.50
2022-10-12T19:02:54.063Z,3.20
2022-10-12T19:13:00.403Z,3.10
2022-10-12T19:23:03.876Z,2.90
2022-10-12T19:33:08.570Z,2.70
2022-10-12T19:43:12.706Z,2.60
2022-10-12T19:53:17.292Z,2.60
2022-10-12T20:03:20.691Z,2.40
2022-10-12T20:13:25.273Z,2.30
2022-10-12T20:23:28.604Z,2.20
2022-10-12T20:33:33.530Z,2.10
2022-10-12T20:43:39.665Z,2.00
2022-10-12T20:53:44.268Z,1.90
2022-10-12T21:03:47.568Z,1.80
2022-10-12T21:13:52.338Z,1.70
2022-10-12T21:23:58.298Z,1.50
2022-10-12T21:34:05.655Z,1.40
2022-10-12T21:44:09.466Z,1.30
2022-10-12T21:54:14.283Z,1.20
2022-10-12T22:04:17.645Z,1.00
2022-10-12T22:14:22.257Z,0.90
2022-10-12T22:24:25.530Z,0.60
2022-10-12T22:34:30.466Z,0.50
2022-10-12T22:44:33.894Z,0.40
2022-10-12T22:54:38.599Z,0.30
2022-10-12T23:04:41.983Z,0.20
2022-10-12T23:14:46.615Z,0.10
2022-10-12T23:24:49.903Z,-0.10
2022-10-12T23:34:54.579Z,-0.20
2022-10-12T23:44:57.799Z,-0.30
2022-10-12T23:55:02.405Z,-0.30
